sensor_id;sensor_type;location;lat;lon;timestamp;P1;durP1;ratioP1;P2;durP2;ratioP2
7737;SDS011;29398;45.328;5.558;2023-08-24T00:00:43;6.95;;;2.67;;
7737;SDS011;29398;45.328;5.558;2023-08-24T00:01:44;4.93;;;2.55;;
7737;SDS011;29398;45.328;5.558;2023-08-24T00:02:47;7.68;;;2.78;;
7737;SDS011;29398;45.328;5.558;2023-08-24T00:03:48;8.02;;;2.78;;
7737;SDS011;29398;45.328;5.558;2023-08-24T00:04:50;6.93;;;2.72;;
7737;SDS011;29398;45.328;5.558;2023-08-24T00:05:51;5.63;;;2.67;;
7737;SDS011;29398;45.328;5.558;2023-08-24T00:06:53;6.05;;;2.92;;
7737;SDS011;29398;45.328;5.558;2023-08-24T00:07:54;6.78;;;3.10;;
7737;SDS011;29398;45.328;5.558;2023-08-24T00:08:58;4.55;;;2.40;;
7737;SDS011;29398;45.328;5.558;2023-08-24T00:09:59;6.88;;;2.47;;
7737;SDS011;29398;45.328;5.558;2023-08-24T00:11:02;6.80;;;2.63;;
7737;SDS011;29398;45.328;5.558;2023-08-24T00:12:03;6.85;;;2.60;;
7737;SDS011;29398;45.328;5.558;2023-08-24T00:13:06;5.65;;;2.35;;
7737;SDS011;29398;45.328;5.558;2023-08-24T00:14:08;8.20;;;2.92;;
7737;SDS011;29398;45.328;5.558;2023-08-24T00:15:10;5.20;;;2.17;;
7737;SDS011;29398;45.328;5.558;2023-08-24T00:16:12;6.50;;;2.50;;
7737;SDS011;29398;45.328;5.558;2023-08-24T00:17:14;5.10;;;2.35;;
7737;SDS011;29398;45.328;5.558;2023-08-24T00:18:15;7.55;;;2.70;;
7737;SDS011;29398;45.328;5.558;2023-08-24T00:19:19;7.38;;;2.45;;
7737;SDS011;29398;45.328;5.558;2023-08-24T00:20:20;3.75;;;2.30;;
7737;SDS011;29398;45.328;5.558;2023-08-24T00:21:23;8.35;;;2.60;;
7737;SDS011;29398;45.328;5.558;2023-08-24T00:22:24;3.42;;;2.58;;
7737;SDS011;29398;45.328;5.558;2023-08-24T00:23:26;6.53;;;2.38;;
7737;SDS011;29398;45.328;5.558;2023-08-24T00:24:28;7.30;;;3.42;;
7737;SDS011;29398;45.328;5.558;2023-08-24T00:25:30;6.05;;;3.10;;
7737;SDS011;29398;45.328;5.558;2023-08-24T00:26:32;5.78;;;2.60;;
7737;SDS011;29398;45.328;5.558;2023-08-24T00:27:34;7.32;;;2.60;;
7737;SDS011;29398;45.328;5.558;2023-08-24T00:28:35;7.60;;;2.33;;
7737;SDS011;29398;45.328;5.558;2023-08-24T00:29:37;6.97;;;2.58;;
7737;SDS011;29398;45.328;5.558;2023-08-24T00:30:38;7.40;;;2.63;;
7737;SDS011;29398;45.328;5.558;2023-08-24T00:31:40;5.28;;;2.85;;
7737;SDS011;29398;45.328;5.558;2023-08-24T00:32:41;6.63;;;2.75;;
7737;SDS011;29398;45.328;5.558;2023-08-24T00:33:46;4.68;;;2.47;;
7737;SDS011;29398;45.328;5.558;2023-08-24T00:34:47;5.47;;;2.50;;
7737;SDS011;29398;45.328;5.558;2023-08-24T00:35:49;8.73;;;3.00;;
7737;SDS011;29398;45.328;5.558;2023-08-24T00:36:51;7.15;;;2.80;;
7737;SDS011;29398;45.328;5.558;2023-08-24T00:37:53;8.18;;;3.45;;
7737;SDS011;29398;45.328;5.558;2023-08-24T00:38:54;9.45;;;3.08;;
7737;SDS011;29398;45.328;5.558;2023-08-24T00:39:59;7.93;;;2.85;;
7737;SDS011;29398;45.328;5.558;2023-08-24T00:41:01;4.97;;;2.58;;
7737;SDS011;29398;45.328;5.558;2023-08-24T00:42:03;7.10;;;3.00;;
7737;SDS011;29398;45.328;5.558;2023-08-24T00:43:04;4.10;;;2.60;;
7737;SDS011;29398;45.328;5.558;2023-08-24T00:44:07;6.03;;;2.30;;
7737;SDS011;29398;45.328;5.558;2023-08-24T00:45:08;11.55;;;2.83;;
7737;SDS011;29398;45.328;5.558;2023-08-24T00:46:11;5.55;;;2.40;;
7737;SDS011;29398;45.328;5.558;2023-08-24T00:47:13;3.47;;;2.17;;
7737;SDS011;29398;45.328;5.558;2023-08-24T00:48:14;3.60;;;2.33;;
7737;SDS011;29398;45.328;5.558;2023-08-24T00:49:16;3.75;;;2.50;;
7737;SDS011;29398;45.328;5.558;2023-08-24T00:50:17;6.10;;;2.58;;
7737;SDS011;29398;45.328;5.558;2023-08-24T00:51:20;5.90;;;2.60;;
7737;SDS011;29398;45.328;5.558;2023-08-24T00:52:21;4.90;;;2.40;;
7737;SDS011;29398;45.328;5.558;2023-08-24T00:53:23;4.75;;;2.13;;
7737;SDS011;29398;45.328;5.558;2023-08-24T00:54:26;5.00;;;2.53;;
7737;SDS011;29398;45.328;5.558;2023-08-24T00:55:30;4.57;;;2.30;;
7737;SDS011;29398;45.328;5.558;2023-08-24T00:56:31;7.88;;;2.72;;
7737;SDS011;29398;45.328;5.558;2023-08-24T00:57:34;6.28;;;2.60;;
7737;SDS011;29398;45.328;5.558;2023-08-24T00:58:37;7.78;;;2.65;;
7737;SDS011;29398;45.328;5.558;2023-08-24T00:59:40;3.55;;;2.20;;
7737;SDS011;29398;45.328;5.558;2023-08-24T01:00:41;6.25;;;2.78;;
7737;SDS011;29398;45.328;5.558;2023-08-24T01:01:46;7.78;;;2.40;;
7737;SDS011;29398;45.328;5.558;2023-08-24T01:02:47;5.40;;;2.58;;
7737;SDS011;29398;45.328;5.558;2023-08-24T01:03:49;6.32;;;2.70;;
7737;SDS011;29398;45.328;5.558;2023-08-24T01:04:50;4.35;;;2.30;;
7737;SDS011;29398;45.328;5.558;2023-08-24T01:05:53;5.78;;;2.80;;
7737;SDS011;29398;45.328;5.558;2023-08-24T01:06:54;6.25;;;2.53;;
7737;SDS011;29398;45.328;5.558;2023-08-24T01:07:56;8.05;;;2.83;;
7737;SDS011;29398;45.328;5.558;2023-08-24T01:08:57;9.48;;;3.45;;
7737;SDS011;29398;45.328;5.558;2023-08-24T01:10:00;5.80;;;2.45;;
7737;SDS011;29398;45.328;5.558;2023-08-24T01:11:07;4.25;;;2.78;;
7737;SDS011;29398;45.328;5.558;2023-08-24T01:12:15;6.00;;;3.17;;
7737;SDS011;29398;45.328;5.558;2023-08-24T01:13:26;8.60;;;2.70;;
7737;SDS011;29398;45.328;5.558;2023-08-24T01:14:36;8.00;;;3.05;;
7737;SDS011;29398;45.328;5.558;2023-08-24T01:15:46;7.97;;;3.33;;
7737;SDS011;29398;45.328;5.558;2023-08-24T01:16:53;6.50;;;2.97;;
7737;SDS011;29398;45.328;5.558;2023-08-24T01:17:58;4.80;;;2.58;;
7737;SDS011;29398;45.328;5.558;2023-08-24T01:19:05;5.47;;;2.55;;
7737;SDS011;29398;45.328;5.558;2023-08-24T01:20:11;5.68;;;2.88;;
7737;SDS011;29398;45.328;5.558;2023-08-24T01:21:15;3.45;;;2.28;;
7737;SDS011;29398;45.328;5.558;2023-08-24T01:23:43;4.45;;;2.80;;
7737;SDS011;29398;45.328;5.558;2023-08-24T01:24:52;6.03;;;2.95;;
7737;SDS011;29398;45.328;5.558;2023-08-24T01:26:03;5.53;;;2.30;;
7737;SDS011;29398;45.328;5.558;2023-08-24T01:27:08;6.65;;;3.10;;
7737;SDS011;29398;45.328;5.558;2023-08-24T01:28:11;6.22;;;3.08;;
7737;SDS011;29398;45.328;5.558;2023-08-24T01:29:14;6.45;;;3.00;;
7737;SDS011;29398;45.328;5.558;2023-08-24T01:30:17;5.80;;;2.80;;
7737;SDS011;29398;45.328;5.558;2023-08-24T01:31:18;5.97;;;2.75;;
7737;SDS011;29398;45.328;5.558;2023-08-24T01:32:22;5.18;;;2.72;;
7737;SDS011;29398;45.328;5.558;2023-08-24T01:33:23;5.25;;;2.90;;
7737;SDS011;29398;45.328;5.558;2023-08-24T01:34:27;6.57;;;3.00;;
7737;SDS011;29398;45.328;5.558;2023-08-24T01:35:30;5.85;;;2.80;;
7737;SDS011;29398;45.328;5.558;2023-08-24T01:36:33;6.63;;;3.17;;
7737;SDS011;29398;45.328;5.558;2023-08-24T01:37:34;4.78;;;2.67;;
7737;SDS011;29398;45.328;5.558;2023-08-24T01:38:38;7.85;;;2.80;;
7737;SDS011;29398;45.328;5.558;2023-08-24T01:39:42;8.38;;;2.60;;
7737;SDS011;29398;45.328;5.558;2023-08-24T01:40:53;4.38;;;2.38;;
7737;SDS011;29398;45.328;5.558;2023-08-24T01:42:01;4.63;;;2.80;;
7737;SDS011;29398;45.328;5.558;2023-08-24T01:43:07;5.97;;;2.65;;
7737;SDS011;29398;45.328;5.558;2023-08-24T01:44:14;5.57;;;2.60;;
7737;SDS011;29398;45.328;5.558;2023-08-24T01:45:19;6.25;;;2.92;;
7737;SDS011;29398;45.328;5.558;2023-08-24T01:46:24;6.55;;;3.00;;
7737;SDS011;29398;45.328;5.558;2023-08-24T01:47:27;4.47;;;2.88;;
7737;SDS011;29398;45.328;5.558;2023-08-24T01:48:29;4.35;;;2.63;;
7737;SDS011;29398;45.328;5.558;2023-08-24T01:49:33;7.93;;;2.85;;
7737;SDS011;29398;45.328;5.558;2023-08-24T01:50:35;3.95;;;2.47;;
7737;SDS011;29398;45.328;5.558;2023-08-24T01:51:36;5.15;;;2.67;;
7737;SDS011;29398;45.328;5.558;2023-08-24T01:52:39;5.47;;;3.08;;
7737;SDS011;29398;45.328;5.558;2023-08-24T01:53:42;3.95;;;2.38;;
7737;SDS011;29398;45.328;5.558;2023-08-24T01:54:46;5.43;;;3.03;;
7737;SDS011;29398;45.328;5.558;2023-08-24T01:55:48;6.70;;;2.88;;
7737;SDS011;29398;45.328;5.558;2023-08-24T01:56:50;5.40;;;2.83;;
7737;SDS011;29398;45.328;5.558;2023-08-24T01:57:54;6.90;;;3.13;;
7737;SDS011;29398;45.328;5.558;2023-08-24T01:58:57;5.47;;;2.75;;
7737;SDS011;29398;45.328;5.558;2023-08-24T01:59:58;8.00;;;3.30;;
7737;SDS011;29398;45.328;5.558;2023-08-24T02:01:01;8.15;;;2.90;;
7737;SDS011;29398;45.328;5.558;2023-08-24T02:02:02;6.95;;;2.95;;
7737;SDS011;29398;45.328;5.558;2023-08-24T02:03:04;4.32;;;2.67;;
7737;SDS011;29398;45.328;5.558;2023-08-24T02:04:05;9.23;;;3.15;;
7737;SDS011;29398;45.328;5.558;2023-08-24T02:05:07;8.13;;;3.10;;
7737;SDS011;29398;45.328;5.558;2023-08-24T02:06:08;5.88;;;2.85;;
7737;SDS011;29398;45.328;5.558;2023-08-24T02:07:11;6.90;;;2.75;;
7737;SDS011;29398;45.328;5.558;2023-08-24T02:08:12;5.88;;;2.83;;
7737;SDS011;29398;45.328;5.558;2023-08-24T02:09:14;4.78;;;2.67;;
7737;SDS011;29398;45.328;5.558;2023-08-24T02:10:16;4.20;;;2.47;;
7737;SDS011;29398;45.328;5.558;2023-08-24T02:11:18;5.10;;;2.83;;
7737;SDS011;29398;45.328;5.558;2023-08-24T02:12:19;6.45;;;3.20;;
7737;SDS011;29398;45.328;5.558;2023-08-24T02:13:23;11.73;;;3.15;;
7737;SDS011;29398;45.328;5.558;2023-08-24T02:14:24;6.43;;;3.28;;
7737;SDS011;29398;45.328;5.558;2023-08-24T02:15:25;7.10;;;3.10;;
7737;SDS011;29398;45.328;5.558;2023-08-24T02:16:27;6.68;;;2.75;;
7737;SDS011;29398;45.328;5.558;2023-08-24T02:17:28;7.90;;;3.53;;
7737;SDS011;29398;45.328;5.558;2023-08-24T02:18:30;8.70;;;3.10;;
7737;SDS011;29398;45.328;5.558;2023-08-24T02:19:32;6.03;;;3.03;;
7737;SDS011;29398;45.328;5.558;2023-08-24T02:20:34;7.25;;;3.25;;
7737;SDS011;29398;45.328;5.558;2023-08-24T02:21:37;7.63;;;3.38;;
7737;SDS011;29398;45.328;5.558;2023-08-24T02:22:39;5.88;;;2.85;;
7737;SDS011;29398;45.328;5.558;2023-08-24T02:23:40;5.80;;;2.80;;
7737;SDS011;29398;45.328;5.558;2023-08-24T02:24:42;6.43;;;2.78;;
7737;SDS011;29398;45.328;5.558;2023-08-24T02:25:44;6.05;;;3.00;;
7737;SDS011;29398;45.328;5.558;2023-08-24T02:26:46;5.32;;;2.95;;
7737;SDS011;29398;45.328;5.558;2023-08-24T02:27:47;5.32;;;2.88;;
7737;SDS011;29398;45.328;5.558;2023-08-24T02:28:51;5.13;;;3.20;;
7737;SDS011;29398;45.328;5.558;2023-08-24T02:29:52;4.43;;;2.78;;
7737;SDS011;29398;45.328;5.558;2023-08-24T02:30:54;5.22;;;3.33;;
7737;SDS011;29398;45.328;5.558;2023-08-24T02:32:00;7.00;;;2.63;;
7737;SDS011;29398;45.328;5.558;2023-08-24T02:33:02;4.68;;;2.72;;
7737;SDS011;29398;45.328;5.558;2023-08-24T02:34:03;4.97;;;2.50;;
7737;SDS011;29398;45.328;5.558;2023-08-24T02:35:06;5.32;;;3.00;;
7737;SDS011;29398;45.328;5.558;2023-08-24T02:36:08;4.18;;;2.47;;
7737;SDS011;29398;45.328;5.558;2023-08-24T02:37:10;6.72;;;2.75;;
7737;SDS011;29398;45.328;5.558;2023-08-24T02:38:11;7.13;;;3.10;;
7737;SDS011;29398;45.328;5.558;2023-08-24T02:39:13;3.83;;;2.63;;
7737;SDS011;29398;45.328;5.558;2023-08-24T02:40:15;5.20;;;3.17;;
7737;SDS011;29398;45.328;5.558;2023-08-24T02:41:17;4.18;;;2.70;;
7737;SDS011;29398;45.328;5.558;2023-08-24T02:42:20;4.00;;;2.63;;
7737;SDS011;29398;45.328;5.558;2023-08-24T02:43:22;6.43;;;3.10;;
7737;SDS011;29398;45.328;5.558;2023-08-24T02:44:25;5.60;;;2.75;;
7737;SDS011;29398;45.328;5.558;2023-08-24T02:45:28;4.63;;;3.03;;
7737;SDS011;29398;45.328;5.558;2023-08-24T02:46:29;8.43;;;3.50;;
7737;SDS011;29398;45.328;5.558;2023-08-24T02:47:31;6.20;;;3.20;;
7737;SDS011;29398;45.328;5.558;2023-08-24T02:48:33;4.70;;;2.85;;
7737;SDS011;29398;45.328;5.558;2023-08-24T02:49:36;4.25;;;2.90;;
7737;SDS011;29398;45.328;5.558;2023-08-24T02:50:37;5.03;;;3.03;;
7737;SDS011;29398;45.328;5.558;2023-08-24T02:51:40;8.00;;;2.90;;
7737;SDS011;29398;45.328;5.558;2023-08-24T02:52:41;6.78;;;2.90;;
7737;SDS011;29398;45.328;5.558;2023-08-24T02:53:43;6.70;;;2.97;;
7737;SDS011;29398;45.328;5.558;2023-08-24T02:54:44;6.03;;;3.28;;
7737;SDS011;29398;45.328;5.558;2023-08-24T02:55:46;3.75;;;2.60;;
7737;SDS011;29398;45.328;5.558;2023-08-24T02:56:47;5.03;;;2.80;;
7737;SDS011;29398;45.328;5.558;2023-08-24T02:57:49;9.27;;;3.05;;
7737;SDS011;29398;45.328;5.558;2023-08-24T02:58:51;6.43;;;3.00;;
7737;SDS011;29398;45.328;5.558;2023-08-24T02:59:55;6.03;;;2.88;;
7737;SDS011;29398;45.328;5.558;2023-08-24T03:00:57;6.10;;;2.75;;
7737;SDS011;29398;45.328;5.558;2023-08-24T03:01:59;5.97;;;2.95;;
7737;SDS011;29398;45.328;5.558;2023-08-24T03:03:00;4.75;;;2.97;;
7737;SDS011;29398;45.328;5.558;2023-08-24T03:04:02;6.82;;;2.78;;
7737;SDS011;29398;45.328;5.558;2023-08-24T03:05:05;5.57;;;3.03;;
7737;SDS011;29398;45.328;5.558;2023-08-24T03:06:07;6.18;;;3.00;;
7737;SDS011;29398;45.328;5.558;2023-08-24T03:07:10;7.00;;;3.22;;
7737;SDS011;29398;45.328;5.558;2023-08-24T03:08:12;5.40;;;3.10;;
7737;SDS011;29398;45.328;5.558;2023-08-24T03:09:13;7.65;;;3.00;;
7737;SDS011;29398;45.328;5.558;2023-08-24T03:10:15;4.80;;;2.90;;
7737;SDS011;29398;45.328;5.558;2023-08-24T03:11:16;7.30;;;3.20;;
7737;SDS011;29398;45.328;5.558;2023-08-24T03:12:19;5.38;;;2.80;;
7737;SDS011;29398;45.328;5.558;2023-08-24T03:13:20;6.10;;;3.22;;
7737;SDS011;29398;45.328;5.558;2023-08-24T03:14:22;8.35;;;3.08;;
7737;SDS011;29398;45.328;5.558;2023-08-24T03:15:24;7.07;;;3.50;;
7737;SDS011;29398;45.328;5.558;2023-08-24T03:16:27;7.40;;;3.40;;
7737;SDS011;29398;45.328;5.558;2023-08-24T03:17:28;4.78;;;2.67;;
7737;SDS011;29398;45.328;5.558;2023-08-24T03:18:30;6.75;;;3.20;;
7737;SDS011;29398;45.328;5.558;2023-08-24T03:19:31;8.82;;;3.40;;
7737;SDS011;29398;45.328;5.558;2023-08-24T03:20:34;5.55;;;3.40;;
7737;SDS011;29398;45.328;5.558;2023-08-24T03:21:35;5.00;;;2.90;;
7737;SDS011;29398;45.328;5.558;2023-08-24T03:22:37;7.90;;;3.30;;
7737;SDS011;29398;45.328;5.558;2023-08-24T03:23:39;9.23;;;3.22;;
7737;SDS011;29398;45.328;5.558;2023-08-24T03:24:41;6.97;;;3.30;;
7737;SDS011;29398;45.328;5.558;2023-08-24T03:25:43;7.13;;;3.60;;
7737;SDS011;29398;45.328;5.558;2023-08-24T03:26:45;5.13;;;3.30;;
7737;SDS011;29398;45.328;5.558;2023-08-24T03:27:46;5.72;;;3.30;;
7737;SDS011;29398;45.328;5.558;2023-08-24T03:28:48;7.93;;;3.72;;
7737;SDS011;29398;45.328;5.558;2023-08-24T03:29:51;8.07;;;3.50;;
7737;SDS011;29398;45.328;5.558;2023-08-24T03:30:54;9.20;;;3.35;;
7737;SDS011;29398;45.328;5.558;2023-08-24T03:31:56;5.28;;;3.60;;
7737;SDS011;29398;45.328;5.558;2023-08-24T03:32:59;5.18;;;3.15;;
7737;SDS011;29398;45.328;5.558;2023-08-24T03:34:01;8.52;;;3.30;;
7737;SDS011;29398;45.328;5.558;2023-08-24T03:35:05;8.35;;;3.15;;
7737;SDS011;29398;45.328;5.558;2023-08-24T03:36:07;5.68;;;3.17;;
7737;SDS011;29398;45.328;5.558;2023-08-24T03:37:10;6.40;;;3.20;;
7737;SDS011;29398;45.328;5.558;2023-08-24T03:38:11;4.22;;;3.10;;
7737;SDS011;29398;45.328;5.558;2023-08-24T03:39:14;5.40;;;3.40;;
7737;SDS011;29398;45.328;5.558;2023-08-24T03:40:15;3.60;;;2.83;;
7737;SDS011;29398;45.328;5.558;2023-08-24T03:41:17;5.75;;;3.13;;
7737;SDS011;29398;45.328;5.558;2023-08-24T03:42:20;7.18;;;3.30;;
7737;SDS011;29398;45.328;5.558;2023-08-24T03:43:22;6.95;;;3.00;;
7737;SDS011;29398;45.328;5.558;2023-08-24T03:44:23;4.60;;;2.97;;
7737;SDS011;29398;45.328;5.558;2023-08-24T03:45:25;7.95;;;3.33;;
7737;SDS011;29398;45.328;5.558;2023-08-24T03:46:27;4.97;;;3.03;;
7737;SDS011;29398;45.328;5.558;2023-08-24T03:47:29;7.53;;;3.00;;
7737;SDS011;29398;45.328;5.558;2023-08-24T03:48:31;7.78;;;3.17;;
7737;SDS011;29398;45.328;5.558;2023-08-24T03:49:33;8.13;;;3.50;;
7737;SDS011;29398;45.328;5.558;2023-08-24T03:50:34;4.40;;;2.83;;
7737;SDS011;29398;45.328;5.558;2023-08-24T03:51:36;5.68;;;2.72;;
7737;SDS011;29398;45.328;5.558;2023-08-24T03:52:37;7.47;;;3.00;;
7737;SDS011;29398;45.328;5.558;2023-08-24T03:53:40;7.22;;;3.08;;
7737;SDS011;29398;45.328;5.558;2023-08-24T03:54:41;7.45;;;3.80;;
7737;SDS011;29398;45.328;5.558;2023-08-24T03:55:46;7.40;;;3.42;;
7737;SDS011;29398;45.328;5.558;2023-08-24T03:56:48;9.32;;;3.75;;
7737;SDS011;29398;45.328;5.558;2023-08-24T03:57:50;5.78;;;3.33;;
7737;SDS011;29398;45.328;5.558;2023-08-24T03:58:51;5.95;;;3.00;;
7737;SDS011;29398;45.328;5.558;2023-08-24T03:59:54;4.72;;;3.13;;
7737;SDS011;29398;45.328;5.558;2023-08-24T04:00:57;4.55;;;3.05;;
7737;SDS011;29398;45.328;5.558;2023-08-24T04:02:01;4.50;;;2.95;;
7737;SDS011;29398;45.328;5.558;2023-08-24T04:03:03;8.18;;;3.88;;
7737;SDS011;29398;45.328;5.558;2023-08-24T04:04:06;6.38;;;3.13;;
7737;SDS011;29398;45.328;5.558;2023-08-24T04:05:07;6.30;;;3.05;;
7737;SDS011;29398;45.328;5.558;2023-08-24T04:06:09;4.85;;;3.08;;
7737;SDS011;29398;45.328;5.558;2023-08-24T04:07:10;11.38;;;3.70;;
7737;SDS011;29398;45.328;5.558;2023-08-24T04:08:12;9.10;;;3.92;;
7737;SDS011;29398;45.328;5.558;2023-08-24T04:09:14;6.05;;;3.40;;
7737;SDS011;29398;45.328;5.558;2023-08-24T04:10:16;5.00;;;3.05;;
7737;SDS011;29398;45.328;5.558;2023-08-24T04:11:17;7.18;;;3.50;;
7737;SDS011;29398;45.328;5.558;2023-08-24T04:12:20;4.97;;;3.20;;
7737;SDS011;29398;45.328;5.558;2023-08-24T04:13:21;5.60;;;2.97;;
7737;SDS011;29398;45.328;5.558;2023-08-24T04:14:22;6.10;;;3.58;;
7737;SDS011;29398;45.328;5.558;2023-08-24T04:15:25;4.93;;;3.30;;
7737;SDS011;29398;45.328;5.558;2023-08-24T04:16:26;5.40;;;2.83;;
7737;SDS011;29398;45.328;5.558;2023-08-24T04:17:29;4.95;;;2.97;;
7737;SDS011;29398;45.328;5.558;2023-08-24T04:18:30;3.90;;;3.25;;
7737;SDS011;29398;45.328;5.558;2023-08-24T04:19:35;5.18;;;3.10;;
7737;SDS011;29398;45.328;5.558;2023-08-24T04:20:38;4.50;;;3.30;;
7737;SDS011;29398;45.328;5.558;2023-08-24T04:21:40;8.07;;;3.20;;
7737;SDS011;29398;45.328;5.558;2023-08-24T04:22:41;9.20;;;3.03;;
7737;SDS011;29398;45.328;5.558;2023-08-24T04:23:44;5.35;;;3.03;;
7737;SDS011;29398;45.328;5.558;2023-08-24T04:24:45;6.55;;;3.30;;
7737;SDS011;29398;45.328;5.558;2023-08-24T04:25:46;7.53;;;3.20;;
7737;SDS011;29398;45.328;5.558;2023-08-24T04:26:48;3.53;;;2.50;;
7737;SDS011;29398;45.328;5.558;2023-08-24T04:27:49;5.03;;;3.28;;
7737;SDS011;29398;45.328;5.558;2023-08-24T04:28:51;6.10;;;3.30;;
7737;SDS011;29398;45.328;5.558;2023-08-24T04:29:52;6.47;;;3.05;;
7737;SDS011;29398;45.328;5.558;2023-08-24T04:30:55;8.38;;;3.50;;
7737;SDS011;29398;45.328;5.558;2023-08-24T04:31:57;10.95;;;3.35;;
7737;SDS011;29398;45.328;5.558;2023-08-24T04:33:00;5.15;;;3.30;;
7737;SDS011;29398;45.328;5.558;2023-08-24T04:34:03;9.88;;;3.80;;
7737;SDS011;29398;45.328;5.558;2023-08-24T04:35:06;6.28;;;3.35;;
7737;SDS011;29398;45.328;5.558;2023-08-24T04:36:08;10.43;;;3.40;;
7737;SDS011;29398;45.328;5.558;2023-08-24T04:37:10;3.70;;;3.08;;
7737;SDS011;29398;45.328;5.558;2023-08-24T04:38:11;5.05;;;2.95;;
7737;SDS011;29398;45.328;5.558;2023-08-24T04:39:13;5.32;;;3.08;;
7737;SDS011;29398;45.328;5.558;2023-08-24T04:40:14;5.75;;;3.60;;
7737;SDS011;29398;45.328;5.558;2023-08-24T04:41:16;6.32;;;3.40;;
7737;SDS011;29398;45.328;5.558;2023-08-24T04:42:17;4.72;;;3.10;;
7737;SDS011;29398;45.328;5.558;2023-08-24T04:43:23;4.00;;;2.92;;
7737;SDS011;29398;45.328;5.558;2023-08-24T04:44:25;5.95;;;3.47;;
7737;SDS011;29398;45.328;5.558;2023-08-24T04:45:27;6.07;;;2.97;;
7737;SDS011;29398;45.328;5.558;2023-08-24T04:46:28;10.57;;;3.47;;
7737;SDS011;29398;45.328;5.558;2023-08-24T04:47:30;9.75;;;3.72;;
7737;SDS011;29398;45.328;5.558;2023-08-24T04:48:33;4.60;;;3.60;;
7737;SDS011;29398;45.328;5.558;2023-08-24T04:49:36;5.88;;;3.50;;
7737;SDS011;29398;45.328;5.558;2023-08-24T04:50:37;5.07;;;3.05;;
7737;SDS011;29398;45.328;5.558;2023-08-24T04:51:39;4.15;;;2.97;;
7737;SDS011;29398;45.328;5.558;2023-08-24T04:52:40;6.63;;;3.40;;
7737;SDS011;29398;45.328;5.558;2023-08-24T04:53:42;5.32;;;2.90;;
7737;SDS011;29398;45.328;5.558;2023-08-24T04:54:43;7.00;;;3.35;;
7737;SDS011;29398;45.328;5.558;2023-08-24T04:55:45;8.43;;;3.88;;
7737;SDS011;29398;45.328;5.558;2023-08-24T04:56:46;4.85;;;3.75;;
7737;SDS011;29398;45.328;5.558;2023-08-24T04:57:48;4.65;;;3.40;;
7737;SDS011;29398;45.328;5.558;2023-08-24T04:58:53;6.97;;;4.07;;
7737;SDS011;29398;45.328;5.558;2023-08-24T04:59:57;6.43;;;3.53;;
7737;SDS011;29398;45.328;5.558;2023-08-24T05:00:58;6.90;;;3.35;;
7737;SDS011;29398;45.328;5.558;2023-08-24T05:02:00;6.10;;;3.65;;
7737;SDS011;29398;45.328;5.558;2023-08-24T05:03:01;7.47;;;3.70;;
7737;SDS011;29398;45.328;5.558;2023-08-24T05:04:04;7.15;;;4.15;;
7737;SDS011;29398;45.328;5.558;2023-08-24T05:05:06;5.15;;;3.97;;
7737;SDS011;29398;45.328;5.558;2023-08-24T05:06:10;7.35;;;3.95;;
7737;SDS011;29398;45.328;5.558;2023-08-24T05:07:12;10.00;;;4.53;;
7737;SDS011;29398;45.328;5.558;2023-08-24T05:08:13;11.07;;;3.72;;
7737;SDS011;29398;45.328;5.558;2023-08-24T05:09:15;4.97;;;3.40;;
7737;SDS011;29398;45.328;5.558;2023-08-24T05:10:16;5.88;;;4.07;;
7737;SDS011;29398;45.328;5.558;2023-08-24T05:11:18;9.13;;;3.35;;
7737;SDS011;29398;45.328;5.558;2023-08-24T05:12:20;5.93;;;3.08;;
7737;SDS011;29398;45.328;5.558;2023-08-24T05:13:22;8.75;;;3.63;;
7737;SDS011;29398;45.328;5.558;2023-08-24T05:14:23;9.18;;;3.55;;
7737;SDS011;29398;45.328;5.558;2023-08-24T05:15:26;10.20;;;3.80;;
7737;SDS011;29398;45.328;5.558;2023-08-24T05:16:27;5.72;;;3.47;;
7737;SDS011;29398;45.328;5.558;2023-08-24T05:17:29;7.13;;;3.30;;
7737;SDS011;29398;45.328;5.558;2023-08-24T05:18:33;6.78;;;3.30;;
7737;SDS011;29398;45.328;5.558;2023-08-24T05:19:37;5.07;;;3.55;;
7737;SDS011;29398;45.328;5.558;2023-08-24T05:20:38;7.07;;;3.10;;
7737;SDS011;29398;45.328;5.558;2023-08-24T05:21:40;5.95;;;3.30;;
7737;SDS011;29398;45.328;5.558;2023-08-24T05:22:41;6.45;;;3.40;;
7737;SDS011;29398;45.328;5.558;2023-08-24T05:23:43;9.10;;;3.95;;
7737;SDS011;29398;45.328;5.558;2023-08-24T05:24:44;6.35;;;4.00;;
7737;SDS011;29398;45.328;5.558;2023-08-24T05:25:47;7.03;;;3.90;;
7737;SDS011;29398;45.328;5.558;2023-08-24T05:26:48;5.50;;;3.88;;
7737;SDS011;29398;45.328;5.558;2023-08-24T05:27:50;9.05;;;3.90;;
7737;SDS011;29398;45.328;5.558;2023-08-24T05:28:52;6.97;;;3.80;;
7737;SDS011;29398;45.328;5.558;2023-08-24T05:29:54;8.77;;;3.13;;
7737;SDS011;29398;45.328;5.558;2023-08-24T05:30:55;6.53;;;2.97;;
7737;SDS011;29398;45.328;5.558;2023-08-24T05:31:57;7.80;;;3.20;;
7737;SDS011;29398;45.328;5.558;2023-08-24T05:33:00;5.90;;;3.10;;
7737;SDS011;29398;45.328;5.558;2023-08-24T05:34:01;6.35;;;3.10;;
7737;SDS011;29398;45.328;5.558;2023-08-24T05:35:05;8.30;;;3.17;;
7737;SDS011;29398;45.328;5.558;2023-08-24T05:36:08;4.88;;;3.28;;
7737;SDS011;29398;45.328;5.558;2023-08-24T05:37:10;10.32;;;3.40;;
7737;SDS011;29398;45.328;5.558;2023-08-24T05:38:11;5.95;;;3.75;;
7737;SDS011;29398;45.328;5.558;2023-08-24T05:39:13;7.22;;;3.30;;
7737;SDS011;29398;45.328;5.558;2023-08-24T05:40:14;5.68;;;3.53;;
7737;SDS011;29398;45.328;5.558;2023-08-24T05:41:16;9.57;;;3.85;;
7737;SDS011;29398;45.328;5.558;2023-08-24T05:42:18;5.80;;;3.55;;
7737;SDS011;29398;45.328;5.558;2023-08-24T05:43:20;7.35;;;3.28;;
7737;SDS011;29398;45.328;5.558;2023-08-24T05:44:21;5.63;;;3.63;;
7737;SDS011;29398;45.328;5.558;2023-08-24T05:45:23;7.38;;;3.45;;
7737;SDS011;29398;45.328;5.558;2023-08-24T05:46:24;9.68;;;3.97;;
7737;SDS011;29398;45.328;5.558;2023-08-24T05:47:26;7.70;;;3.42;;
7737;SDS011;29398;45.328;5.558;2023-08-24T05:48:27;7.55;;;3.90;;
7737;SDS011;29398;45.328;5.558;2023-08-24T05:49:29;9.10;;;4.05;;
7737;SDS011;29398;45.328;5.558;2023-08-24T05:50:33;5.68;;;3.63;;
7737;SDS011;29398;45.328;5.558;2023-08-24T05:51:34;7.70;;;3.85;;
7737;SDS011;29398;45.328;5.558;2023-08-24T05:52:36;5.30;;;3.58;;
7737;SDS011;29398;45.328;5.558;2023-08-24T05:53:37;5.38;;;3.60;;
7737;SDS011;29398;45.328;5.558;2023-08-24T05:54:41;11.63;;;4.10;;
7737;SDS011;29398;45.328;5.558;2023-08-24T05:55:42;4.65;;;3.40;;
7737;SDS011;29398;45.328;5.558;2023-08-24T05:56:44;8.10;;;3.72;;
7737;SDS011;29398;45.328;5.558;2023-08-24T05:57:45;5.60;;;3.50;;
7737;SDS011;29398;45.328;5.558;2023-08-24T05:58:46;4.10;;;3.50;;
7737;SDS011;29398;45.328;5.558;2023-08-24T05:59:48;5.97;;;3.42;;
7737;SDS011;29398;45.328;5.558;2023-08-24T06:00:55;6.22;;;3.80;;
7737;SDS011;29398;45.328;5.558;2023-08-24T06:01:57;6.28;;;3.85;;
7737;SDS011;29398;45.328;5.558;2023-08-24T06:03:17;5.78;;;3.22;;
7737;SDS011;29398;45.328;5.558;2023-08-24T06:04:19;7.22;;;3.70;;
7737;SDS011;29398;45.328;5.558;2023-08-24T06:05:20;8.23;;;4.07;;
7737;SDS011;29398;45.328;5.558;2023-08-24T06:06:24;7.32;;;4.13;;
7737;SDS011;29398;45.328;5.558;2023-08-24T06:07:25;8.07;;;3.55;;
7737;SDS011;29398;45.328;5.558;2023-08-24T06:08:27;9.88;;;4.22;;
7737;SDS011;29398;45.328;5.558;2023-08-24T06:09:28;9.02;;;3.40;;
7737;SDS011;29398;45.328;5.558;2023-08-24T06:10:30;8.20;;;4.10;;
7737;SDS011;29398;45.328;5.558;2023-08-24T06:11:31;7.22;;;3.95;;
7737;SDS011;29398;45.328;5.558;2023-08-24T06:12:34;7.28;;;3.85;;
7737;SDS011;29398;45.328;5.558;2023-08-24T06:13:35;9.02;;;4.00;;
7737;SDS011;29398;45.328;5.558;2023-08-24T06:14:37;5.63;;;3.95;;
7737;SDS011;29398;45.328;5.558;2023-08-24T06:15:38;7.47;;;3.97;;
7737;SDS011;29398;45.328;5.558;2023-08-24T06:16:40;8.18;;;4.03;;
7737;SDS011;29398;45.328;5.558;2023-08-24T06:17:41;7.82;;;4.10;;
7737;SDS011;29398;45.328;5.558;2023-08-24T06:18:43;12.48;;;4.53;;
7737;SDS011;29398;45.328;5.558;2023-08-24T06:19:44;4.70;;;3.65;;
7737;SDS011;29398;45.328;5.558;2023-08-24T06:20:46;5.95;;;3.72;;
7737;SDS011;29398;45.328;5.558;2023-08-24T06:21:50;7.35;;;4.10;;
7737;SDS011;29398;45.328;5.558;2023-08-24T06:22:52;8.57;;;3.83;;